Time;durP1;ratioP1;P1;durP2;ratioP2;P2;SDS_P1;SDS_P2;PMS_P1;PMS_P2;Temp;Humidity;BMP_temperature;BMP_pressure;BME280_temperature;BME280_humidity;BME280_pressure;Samples;Min_cycle;Max_cycle;Signal;HPM_P1;HPM_P2
2022/03/30 00:00:12;;;;;;;61.50;13.37;;;16.60;20.70;;;;;;5093178;28;20184;-71
2022/03/30 00:02:38;;;;;;;82.20;14.17;;;16.60;19.50;;;;;;5074625;28;20195;-71
2022/03/30 00:05:05;;;;;;;82.57;14.47;;;16.40;21.60;;;;;;5093722;28;20435;-71
2022/03/30 00:07:31;;;;;;;71.80;15.67;;;16.40;22.20;;;;;;5089270;28;20514;-71
2022/03/30 00:10:01;;;;;;;69.50;15.10;;;16.40;19.40;;;;;;5092677;28;20424;-70
2022/03/30 00:12:27;;;;;;;53.03;14.53;;;16.60;19.80;;;;;;5093629;28;20435;-71
2022/03/30 00:14:53;;;;;;;64.63;14.90;;;16.80;19.00;;;;;;5093315;28;20435;-70
2022/03/30 00:17:19;;;;;;;75.47;15.57;;;17.00;18.90;;;;;;5090416;28;20457;-73
2022/03/30 00:19:45;;;;;;;67.30;17.73;;;17.10;18.30;;;;;;5093164;28;20180;-71
2022/03/30 00:22:11;;;;;;;72.47;17.30;;;17.00;18.20;;;;;;5092670;28;20699;-71
2022/03/30 00:24:38;;;;;;;51.40;14.63;;;17.00;19.20;;;;;;5093212;28;20193;-71
2022/03/30 00:27:06;;;;;;;60.27;15.30;;;16.90;19.30;;;;;;5091268;28;20678;-71
2022/03/30 00:29:32;;;;;;;60.80;16.20;;;16.80;19.60;;;;;;5093530;28;20944;-70
2022/03/30 00:31:58;;;;;;;35.07;16.00;;;16.70;19.60;;;;;;5092403;28;20453;-71
2022/03/30 00:34:23;;;;;;;57.07;16.50;;;16.60;19.30;;;;;;5092809;28;21009;-71
2022/03/30 00:36:49;;;;;;;86.53;17.23;;;16.60;18.90;;;;;;5092734;28;20175;-71
2022/03/30 00:39:17;;;;;;;46.43;16.33;;;16.70;19.50;;;;;;5091455;28;20179;-71
2022/03/30 00:41:43;;;;;;;59.43;16.50;;;16.50;21.00;;;;;;5092782;28;20188;-71
2022/03/30 00:44:11;;;;;;;68.53;17.63;;;16.20;21.00;;;;;;5092780;28;20543;-72
2022/03/30 00:46:37;;;;;;;52.27;16.27;;;16.20;22.30;;;;;;5092243;28;20171;-71
2022/03/30 00:49:04;;;;;;;54.43;16.03;;;16.00;20.90;;;;;;5091385;28;20490;-71
2022/03/30 00:51:31;;;;;;;61.90;17.43;;;15.90;23.00;;;;;;5092207;28;20468;-71
2022/03/30 00:53:57;;;;;;;40.90;16.90;;;16.00;20.90;;;;;;5091082;28;20786;-71
2022/03/30 00:56:24;;;;;;;54.87;16.23;;;16.00;21.80;;;;;;5090820;28;20991;-70
2022/03/30 00:58:50;;;;;;;56.43;16.70;;;16.30;21.40;;;;;;5087782;28;21052;-71
2022/03/30 01:01:16;;;;;;;59.80;16.10;;;16.30;20.40;;;;;;5085648;28;20534;-71
2022/03/30 01:03:42;;;;;;;62.17;17.27;;;16.50;20.30;;;;;;5084645;28;20521;-71
2022/03/30 01:06:08;;;;;;;42.10;16.37;;;16.20;21.60;;;;;;5091588;28;20838;-71
2022/03/30 01:08:33;;;;;;;68.00;17.20;;;15.60;21.40;;;;;;5092400;28;20223;-70
2022/03/30 01:11:00;;;;;;;50.40;16.23;;;15.70;21.30;;;;;;5090589;28;20199;-70
2022/03/30 01:13:26;;;;;;;63.83;17.80;;;15.20;22.30;;;;;;5074063;28;20176;-71
2022/03/30 01:15:52;;;;;;;51.70;15.83;;;14.60;22.70;;;;;;5092249;28;20423;-71
2022/03/30 01:18:18;;;;;;;59.03;17.77;;;14.80;22.20;;;;;;5092388;28;20429;-71
2022/03/30 01:20:50;;;;;;;59.20;17.47;;;15.30;22.00;;;;;;5082732;28;20260;-70
2022/03/30 01:23:19;;;;;;;61.67;16.37;;;15.40;22.70;;;;;;5090629;28;20432;-72
2022/03/30 01:25:45;;;;;;;58.43;16.80;;;15.50;22.60;;;;;;5073895;28;20531;-71
2022/03/30 01:28:11;;;;;;;59.23;16.40;;;15.50;22.80;;;;;;5091901;28;20900;-72
2022/03/30 01:33:35;;;;;;;55.47;18.17;;;15.60;22.80;;;;;;5047010;28;20941;-72
2022/03/30 01:36:00;;;;;;;57.83;16.77;;;15.90;21.20;;;;;;5091790;28;20427;-72
2022/03/30 01:38:26;;;;;;;51.67;16.37;;;15.90;22.00;;;;;;5091462;28;20178;-72
2022/03/30 01:40:52;;;;;;;53.00;15.63;;;15.70;22.30;;;;;;5090907;28;20257;-71
2022/03/30 01:43:17;;;;;;;51.40;17.40;;;15.60;22.30;;;;;;5090711;28;20179;-70
2022/03/30 01:45:43;;;;;;;66.57;15.77;;;15.70;22.90;;;;;;5090052;28;20185;-71
2022/03/30 01:48:08;;;;;;;65.10;15.40;;;15.60;22.80;;;;;;5089083;28;20214;-71
2022/03/30 01:50:36;;;;;;;55.20;15.70;;;15.80;22.30;;;;;;5090263;28;20163;-72
2022/03/30 01:53:02;;;;;;;53.93;16.97;;;15.80;23.30;;;;;;5090470;28;20171;-71
2022/03/30 01:55:28;;;;;;;54.90;17.50;;;15.80;23.50;;;;;;5089440;28;20427;-71
2022/03/30 01:57:54;;;;;;;67.07;18.03;;;16.10;22.10;;;;;;5091464;28;20272;-72
2022/03/30 02:00:21;;;;;;;66.53;16.87;;;16.00;23.60;;;;;;5069117;28;20187;-72
2022/03/30 02:02:46;;;;;;;65.27;18.90;;;15.80;23.80;;;;;;5088713;28;20195;-72
2022/03/30 02:05:12;;;;;;;57.73;20.10;;;16.00;21.90;;;;;;5072437;28;20429;-71
2022/03/30 02:07:39;;;;;;;65.67;19.40;;;15.90;22.30;;;;;;5091924;28;20221;-72
2022/03/30 02:10:06;;;;;;;52.37;20.17;;;15.70;23.40;;;;;;5090606;28;20240;-71
2022/03/30 02:12:33;;;;;;;74.50;18.97;;;15.40;24.10;;;;;;5091516;28;20430;-70
2022/03/30 02:14:58;;;;;;;56.73;20.17;;;15.80;22.90;;;;;;5090351;28;20459;-72
2022/03/30 02:17:26;;;;;;;59.03;19.83;;;15.60;22.50;;;;;;5090450;28;20459;-70
2022/03/30 02:19:53;;;;;;;57.73;19.70;;;15.40;23.30;;;;;;5091252;28;20175;-72
2022/03/30 02:22:18;;;;;;;69.83;20.53;;;15.40;24.50;;;;;;5088874;28;20451;-71
2022/03/30 02:24:44;;;;;;;59.17;20.23;;;15.50;22.50;;;;;;5090776;28;20435;-71
2022/03/30 02:27:10;;;;;;;62.70;19.67;;;15.50;22.40;;;;;;5091646;28;20246;-72
2022/03/30 02:29:36;;;;;;;55.90;19.23;;;15.40;23.80;;;;;;5091523;28;20597;-71
2022/03/30 02:32:02;;;;;;;54.37;20.63;;;15.70;22.60;;;;;;5088731;28;20213;-71
2022/03/30 02:34:28;;;;;;;58.63;19.77;;;15.80;22.20;;;;;;5091298;28;20432;-72
2022/03/30 02:36:53;;;;;;;66.50;20.93;;;15.60;23.60;;;;;;5090740;28;20506;-72
2022/03/30 02:39:19;;;;;;;49.23;19.53;;;15.40;23.00;;;;;;5091161;28;20182;-73
2022/03/30 02:41:46;;;;;;;58.43;20.00;;;15.50;23.10;;;;;;5089233;28;20201;-72
2022/03/30 02:44:12;;;;;;;52.27;19.97;;;15.20;24.50;;;;;;5091019;28;20307;-72
2022/03/30 02:46:39;;;;;;;47.73;17.60;;;15.20;23.40;;;;;;5090951;28;20492;-72
2022/03/30 02:49:05;;;;;;;70.07;17.70;;;15.50;23.10;;;;;;5090783;28;20452;-72
2022/03/30 02:51:30;;;;;;;49.07;15.97;;;15.60;22.80;;;;;;5090578;28;20802;-72
2022/03/30 02:53:56;;;;;;;68.80;18.27;;;15.40;23.30;;;;;;5090360;28;20514;-72
2022/03/30 02:56:23;;;;;;;51.37;17.00;;;15.30;24.10;;;;;;5090694;28;20308;-72
2022/03/30 02:58:49;;;;;;;52.87;16.10;;;15.30;23.80;;;;;;5091267;28;20429;-72
2022/03/30 03:01:14;;;;;;;60.43;14.73;;;15.50;23.30;;;;;;5091185;28;20460;-69
2022/03/30 03:03:40;;;;;;;56.53;14.53;;;15.20;23.80;;;;;;5093356;28;20206;-71
2022/03/30 03:06:06;;;;;;;51.83;13.47;;;14.90;24.50;;;;;;5094692;28;20227;-72
2022/03/30 03:08:32;;;;;;;56.90;15.20;;;15.10;24.50;;;;;;5094681;28;20460;-71
2022/03/30 03:10:57;;;;;;;60.60;15.07;;;15.20;24.70;;;;;;5093821;28;20262;-71
2022/03/30 03:13:25;;;;;;;60.23;14.97;;;15.20;24.10;;;;;;5094169;28;20169;-72
2022/03/30 03:15:51;;;;;;;71.17;13.93;;;15.10;25.00;;;;;;5093975;28;20225;-71
2022/03/30 03:18:18;;;;;;;62.27;13.30;;;15.10;24.40;;;;;;5094298;28;20434;-71
2022/03/30 03:20:46;;;;;;;65.30;16.87;;;15.20;24.20;;;;;;5094185;28;20424;-71
2022/03/30 03:23:13;;;;;;;57.70;14.87;;;15.50;22.90;;;;;;5094741;28;20408;-71
2022/03/30 03:25:40;;;;;;;53.77;15.03;;;15.30;23.70;;;;;;5093898;28;20461;-71
2022/03/30 03:28:08;;;;;;;63.03;13.50;;;15.30;23.90;;;;;;5093185;28;20461;-71
2022/03/30 03:30:34;;;;;;;60.33;14.70;;;15.40;23.60;;;;;;5093962;28;20424;-72
2022/03/30 03:33:01;;;;;;;60.60;16.30;;;15.50;23.40;;;;;;5094041;28;20413;-71
2022/03/30 03:35:27;;;;;;;53.97;19.20;;;15.30;23.50;;;;;;5092178;28;21003;-71
2022/03/30 03:37:53;;;;;;;64.83;19.23;;;14.30;25.70;;;;;;5093815;28;20461;-72
2022/03/30 03:40:19;;;;;;;65.20;19.77;;;14.30;25.70;;;;;;5075195;28;20412;-71
2022/03/30 03:42:44;;;;;;;65.60;19.43;;;14.50;25.70;;;;;;5093530;28;20798;-69
2022/03/30 03:45:11;;;;;;;60.30;18.83;;;14.60;26.10;;;;;;5092969;28;20642;-71
2022/03/30 03:47:36;;;;;;;52.60;20.30;;;14.70;25.60;;;;;;5092396;28;20288;-70
2022/03/30 03:50:03;;;;;;;67.00;17.80;;;14.80;28.70;;;;;;5092905;28;20515;-72
2022/03/30 03:52:29;;;;;;;66.57;18.93;;;15.10;27.90;;;;;;5093323;28;20194;-71
2022/03/30 03:54:55;;;;;;;60.67;18.07;;;14.90;28.90;;;;;;5093284;28;20416;-71
2022/03/30 03:57:20;;;;;;;58.43;19.83;;;14.60;27.00;;;;;;5092163;28;20557;-71
2022/03/30 03:59:46;;;;;;;53.30;19.10;;;14.50;29.10;;;;;;5093541;28;20185;-71
2022/03/30 04:02:11;;;;;;;71.93;19.80;;;14.70;30.00;;;;;;5092515;28;20251;-71
2022/03/30 04:04:38;;;;;;;57.73;20.07;;;15.00;29.70;;;;;;5092519;28;20184;-72
2022/03/30 04:07:04;;;;;;;83.67;20.97;;;15.00;29.00;;;;;;5091608;28;20179;-71
2022/03/30 04:09:29;;;;;;;84.47;23.27;;;14.80;29.20;;;;;;5091865;28;21129;-72
2022/03/30 04:11:55;;;;;;;53.97;18.90;;;14.50;29.10;;;;;;5092376;28;20432;-70
2022/03/30 04:14:21;;;;;;;55.83;19.70;;;14.80;28.90;;;;;;5091238;28;20185;-71
2022/03/30 04:16:47;;;;;;;59.97;19.73;;;14.70;31.20;;;;;;5092252;28;20208;-71
2022/03/30 04:19:15;;;;;;;71.07;19.47;;;14.80;31.50;;;;;;5083438;28;20650;-72
2022/03/30 04:21:44;;;;;;;74.90;20.60;;;14.70;31.90;;;;;;5091408;28;20462;-71
2022/03/30 04:24:10;;;;;;;60.17;19.60;;;14.90;31.40;;;;;;5091907;28;20456;-71
2022/03/30 04:26:37;;;;;;;71.57;18.87;;;14.80;31.50;;;;;;5091354;28;20426;-71
2022/03/30 04:29:03;;;;;;;61.57;20.90;;;14.70;30.50;;;;;;5090347;28;20466;-72
2022/03/30 04:31:28;;;;;;;69.80;19.00;;;14.60;34.50;;;;;;5088127;28;20463;-72
2022/03/30 04:33:54;;;;;;;68.20;19.13;;;14.40;36.40;;;;;;5074147;28;20428;-71
2022/03/30 04:36:20;;;;;;;83.13;17.90;;;14.30;37.70;;;;;;5092299;28;20180;-73
2022/03/30 04:38:46;;;;;;;59.40;17.27;;;14.50;36.50;;;;;;5091191;28;20260;-70
2022/03/30 04:41:12;;;;;;;52.17;17.97;;;14.70;36.30;;;;;;5091694;28;20948;-70
2022/03/30 04:43:38;;;;;;;59.43;17.17;;;14.50;37.80;;;;;;5092835;28;20417;-72
2022/03/30 04:46:05;;;;;;;49.47;16.13;;;14.50;38.00;;;;;;5092651;28;20642;-71
2022/03/30 04:48:31;;;;;;;57.40;16.63;;;14.30;37.40;;;;;;5092460;28;20456;-71
2022/03/30 04:50:57;;;;;;;47.30;17.90;;;14.40;37.80;;;;;;5090538;28;20822;-72
2022/03/30 04:53:23;;;;;;;62.70;17.53;;;14.30;39.00;;;;;;5092967;28;20227;-72
2022/03/30 04:55:48;;;;;;;53.80;15.47;;;14.50;39.00;;;;;;5092371;28;20177;-71
2022/03/30 04:58:14;;;;;;;44.20;15.53;;;14.50;38.60;;;;;;5092934;28;20183;-71
2022/03/30 05:00:41;;;;;;;57.37;17.03;;;14.40;40.00;;;;;;5090372;28;20173;-71
2022/03/30 05:03:07;;;;;;;60.27;16.60;;;14.70;39.70;;;;;;5092141;28;20531;-71
2022/03/30 05:05:33;;;;;;;66.07;16.83;;;14.40;40.30;;;;;;5092455;28;20440;-71
2022/03/30 05:07:59;;;;;;;54.37;17.90;;;14.20;42.30;;;;;;5092441;28;20453;-71
2022/03/30 05:10:25;;;;;;;56.80;17.77;;;14.10;42.90;;;;;;5074529;28;20432;-70
2022/03/30 05:12:51;;;;;;;53.23;17.07;;;14.10;44.20;;;;;;5090350;28;20194;-71
2022/03/30 05:15:17;;;;;;;64.63;18.23;;;14.10;45.30;;;;;;5074179;28;20482;-71
2022/03/30 05:17:45;;;;;;;57.57;16.13;;;14.20;45.20;;;;;;5091722;28;20659;-71
2022/03/30 05:20:12;;;;;;;66.03;18.70;;;14.30;45.00;;;;;;5092071;28;20436;-71
2022/03/30 05:22:38;;;;;;;88.37;19.70;;;14.50;43.40;;;;;;5072326;28;20774;-72
2022/03/30 05:25:04;;;;;;;54.70;18.03;;;14.60;44.00;;;;;;5090989;28;20452;-72
2022/03/30 05:27:30;;;;;;;44.90;16.60;;;14.70;43.50;;;;;;5091251;28;20197;-70
2022/03/30 05:29:55;;;;;;;58.27;18.60;;;14.80;42.50;;;;;;5091337;28;20430;-71
2022/03/30 05:32:21;;;;;;;62.47;16.40;;;14.80;41.20;;;;;;5089873;28;20687;-70
2022/03/30 05:34:46;;;;;;;59.50;18.70;;;14.50;41.50;;;;;;5091437;28;20178;-71
2022/03/30 05:37:12;;;;;;;48.40;17.17;;;14.30;43.40;;;;;;5091679;28;20176;-72
2022/03/30 05:39:41;;;;;;;48.17;16.43;;;14.20;44.40;;;;;;5091840;28;20178;-71
2022/03/30 05:42:11;;;;;;;61.43;18.73;;;13.90;45.00;;;;;;5091593;28;20192;-72
2022/03/30 05:44:37;;;;;;;76.90;18.67;;;14.00;46.20;;;;;;5090576;28;20955;-71
2022/03/30 05:47:03;;;;;;;67.77;18.70;;;14.50;43.00;;;;;;5091719;28;20507;-72
2022/03/30 05:49:28;;;;;;;81.07;19.40;;;14.70;41.70;;;;;;5091583;28;20254;-71
2022/03/30 05:51:54;;;;;;;57.70;16.83;;;14.80;41.40;;;;;;5090981;28;20807;-71
2022/03/30 05:54:20;;;;;;;55.07;18.53;;;14.60;43.40;;;;;;5090214;28;20728;-71
2022/03/30 05:57:07;;;;;;;48.47;17.77;;;14.50;45.10;;;;;;5091400;28;20177;-72
2022/03/30 05:59:37;;;;;;;56.03;17.60;;;14.60;43.40;;;;;;5090893;28;20181;-71
2022/03/30 06:02:08;;;;;;;88.73;20.27;;;14.90;41.80;;;;;;5090166;28;20964;-71
2022/03/30 06:04:34;;;;;;;83.97;20.07;;;14.60;43.40;;;;;;5091538;28;20554;-71
2022/03/30 06:07:00;;;;;;;50.07;19.53;;;14.30;45.10;;;;;;5091229;28;20436;-71
2022/03/30 06:09:27;;;;;;;70.37;18.43;;;13.70;47.50;;;;;;5091030;28;20512;-71
2022/03/30 06:11:53;;;;;;;63.17;18.27;;;13.10;51.50;;;;;;5089646;28;20484;-71
2022/03/30 06:14:20;;;;;;;72.47;20.17;;;12.90;53.90;;;;;;5090666;28;20424;-70
2022/03/30 06:16:46;;;;;;;56.43;20.43;;;13.00;54.00;;;;;;5073396;28;20413;-71
2022/03/30 06:19:13;;;;;;;61.70;20.67;;;13.30;51.90;;;;;;5090837;28;20397;-71
2022/03/30 06:21:42;;;;;;;71.93;19.10;;;13.50;51.10;;;;;;5090821;28;20530;-71
2022/03/30 06:24:10;;;;;;;75.60;21.00;;;13.80;51.00;;;;;;5089277;28;20916;-71
2022/03/30 06:26:40;;;;;;;66.10;24.17;;;13.70;52.00;;;;;;5091125;28;20427;-71
2022/03/30 06:29:06;;;;;;;74.53;24.50;;;13.60;50.90;;;;;;5090697;28;20501;-71
2022/03/30 06:31:32;;;;;;;70.40;23.90;;;13.70;49.70;;;;;;5091059;28;20463;-71
2022/03/30 06:33:58;;;;;;;75.57;24.13;;;13.80;49.30;;;;;;5090843;28;20426;-72
2022/03/30 06:36:25;;;;;;;50.23;21.00;;;14.00;49.10;;;;;;5092454;28;20175;-71
2022/03/30 06:38:52;;;;;;;74.23;22.00;;;14.40;47.10;;;;;;5095075;28;20455;-71
2022/03/30 06:41:18;;;;;;;66.57;22.73;;;14.30;47.80;;;;;;5096569;28;20445;-71
2022/03/30 06:43:47;;;;;;;67.93;22.00;;;14.40;47.50;;;;;;5094861;28;20431;-71
2022/03/30 06:46:14;;;;;;;62.70;23.37;;;14.60;45.90;;;;;;5095108;28;20801;-71
2022/03/30 06:48:40;;;;;;;73.07;20.93;;;14.40;48.30;;;;;;5094446;28;20462;-71
2022/03/30 06:51:06;;;;;;;74.47;22.17;;;14.20;47.70;;;;;;5093218;28;20487;-71
2022/03/30 06:53:32;;;;;;;60.10;20.60;;;14.20;48.50;;;;;;5094479;28;20447;-72
2022/03/30 06:55:57;;;;;;;71.13;19.47;;;14.40;48.40;;;;;;5094413;28;20223;-71
2022/03/30 06:58:24;;;;;;;64.37;19.27;;;14.70;44.70;;;;;;5094739;28;20199;-70
2022/03/30 07:00:50;;;;;;;73.03;20.23;;;14.50;46.40;;;;;;5093854;28;20246;-71
2022/03/30 07:03:16;;;;;;;52.30;19.30;;;14.30;49.10;;;;;;5093254;28;20439;-71
2022/03/30 07:05:42;;;;;;;55.87;19.53;;;14.30;49.50;;;;;;5076127;28;20427;-71
2022/03/30 07:10:52;;;;;;;49.60;19.63;;;14.10;49.90;;;;;;5094883;28;20726;-70
2022/03/30 07:13:19;;;;;;;54.77;19.33;;;14.10;50.90;;;;;;5094437;28;20427;-71
2022/03/30 07:15:44;;;;;;;54.67;18.00;;;14.10;49.90;;;;;;5094036;28;20169;-70
2022/03/30 07:18:10;;;;;;;60.47;18.00;;;14.20;49.50;;;;;;5094591;28;20415;-70
2022/03/30 07:20:37;;;;;;;55.70;18.27;;;14.20;50.20;;;;;;5085167;28;21731;-72
2022/03/30 07:23:03;;;;;;;55.57;17.83;;;14.20;50.60;;;;;;5094097;28;20219;-70
2022/03/30 07:25:30;;;;;;;61.90;18.60;;;14.20;49.30;;;;;;5094230;28;20431;-70
2022/03/30 07:27:58;;;;;;;63.37;19.40;;;14.10;50.80;;;;;;5093397;28;20459;-72
2022/03/30 07:30:24;;;;;;;53.40;18.93;;;14.20;50.10;;;;;;5091718;28;21137;-69
2022/03/30 07:32:51;;;;;;;51.50;19.07;;;14.20;50.80;;;;;;5092918;28;20445;-69
2022/03/30 07:35:20;;;;;;;55.97;18.43;;;14.40;50.50;;;;;;5093859;28;20790;-69
2022/03/30 07:37:46;;;;;;;56.33;19.70;;;14.10;49.90;;;;;;5094181;28;20450;-70
2022/03/30 07:40:18;;;;;;;49.67;18.60;;;14.10;51.00;;;;;;5093741;28;20422;-69
2022/03/30 07:42:46;;;;;;;64.37;19.40;;;13.70;52.70;;;;;;5087237;28;20476;-70
2022/03/30 07:45:12;;;;;;;49.00;18.90;;;13.90;52.20;;;;;;5093395;28;20426;-69
2022/03/30 07:47:38;;;;;;;47.60;18.00;;;14.10;51.00;;;;;;5093132;28;20821;-74
2022/03/30 07:50:06;;;;;;;58.47;18.40;;;14.00;50.40;;;;;;5094206;28;20427;-78
2022/03/30 07:52:31;;;;;;;55.47;19.23;;;13.90;51.70;;;;;;5071891;28;20504;-78
2022/03/30 07:54:57;;;;;;;55.20;17.50;;;13.70;53.10;;;;;;5075021;28;20586;-78
2022/03/30 07:57:29;;;;;;;69.70;18.63;;;13.60;53.30;;;;;;5075600;28;20170;-78
2022/03/30 07:59:56;;;;;;;52.63;18.70;;;13.60;54.80;;;;;;5093463;28;20208;-78
2022/03/30 08:02:23;;;;;;;47.43;17.63;;;13.90;53.60;;;;;;5074690;28;20867;-78
2022/03/30 08:04:49;;;;;;;46.90;18.30;;;14.10;52.40;;;;;;5092768;28;20431;-78
2022/03/30 08:07:15;;;;;;;42.50;16.87;;;14.30;51.50;;;;;;5082502;28;20796;-78
2022/03/30 08:09:42;;;;;;;59.10;18.97;;;14.40;51.00;;;;;;5092633;28;20439;-78
2022/03/30 08:12:11;;;;;;;46.53;17.37;;;14.40;50.10;;;;;;5093194;28;20643;-78
2022/03/30 08:14:37;;;;;;;47.80;18.07;;;14.50;51.40;;;;;;5093616;28;20448;-78
2022/03/30 08:17:03;;;;;;;66.97;20.63;;;14.60;51.00;;;;;;5093221;28;20454;-74
2022/03/30 08:19:29;;;;;;;48.47;19.00;;;14.70;51.10;;;;;;5093880;28;20404;-75
2022/03/30 08:24:39;;;;;;;54.33;18.40;;;14.70;51.20;;;;;;5093594;28;20178;-72
2022/03/30 08:27:05;;;;;;;90.73;20.57;;;14.70;51.10;;;;;;5093469;28;20408;-72
2022/03/30 08:29:31;;;;;;;51.07;18.10;;;14.70;51.30;;;;;;5074627;28;20658;-72
2022/03/30 08:31:57;;;;;;;58.83;19.60;;;14.90;50.60;;;;;;5073908;28;20484;-72
2022/03/30 08:34:25;;;;;;;55.80;18.60;;;15.00;50.60;;;;;;5073675;28;20409;-71
2022/03/30 08:36:50;;;;;;;57.73;19.90;;;15.10;50.00;;;;;;5093282;28;20400;-72
2022/03/30 08:39:18;;;;;;;56.77;17.30;;;15.10;49.40;;;;;;5092545;28;20415;-72
2022/03/30 08:41:47;;;;;;;52.83;17.10;;;15.10;48.70;;;;;;5092688;28;20186;-77
2022/03/30 08:44:14;;;;;;;58.40;18.27;;;15.20;49.70;;;;;;5092304;28;20408;-72
2022/03/30 08:46:41;;;;;;;47.20;18.90;;;15.20;50.30;;;;;;5089465;28;20914;-75
2022/03/30 08:49:08;;;;;;;46.57;17.93;;;15.20;49.40;;;;;;5091068;28;20459;-71
2022/03/30 08:51:38;;;;;;;54.63;18.33;;;15.10;49.30;;;;;;5092235;28;20446;-71
2022/03/30 08:54:04;;;;;;;76.63;19.70;;;14.80;48.80;;;;;;5092915;28;20494;-73
2022/03/30 08:56:30;;;;;;;61.20;20.10;;;14.60;50.60;;;;;;5092556;28;20988;-72
2022/03/30 08:59:07;;;;;;;62.13;20.97;;;14.30;52.60;;;;;;5101338;28;20536;-74
2022/03/30 09:01:39;;;;;;;77.77;20.90;;;14.20;55.40;;;;;;5112568;28;20939;-71
2022/03/30 09:04:09;;;;;;;88.67;24.77;;;14.30;53.60;;;;;;5091309;28;20515;-72
2022/03/30 09:06:49;;;;;;;67.53;22.57;;;14.30;55.50;;;;;;5056852;28;20430;-75
2022/03/30 09:09:25;;;;;;;55.90;21.90;;;14.40;54.40;;;;;;5084847;28;20831;-71
2022/03/30 09:11:55;;;;;;;80.37;25.40;;;14.50;53.40;;;;;;5091037;28;20941;-71
2022/03/30 09:14:23;;;;;;;72.03;23.50;;;14.40;54.90;;;;;;5090877;28;20428;-73
2022/03/30 09:16:56;;;;;;;79.47;23.70;;;14.20;54.60;;;;;;5073388;28;20421;-71
2022/03/30 09:19:22;;;;;;;86.77;23.80;;;14.40;54.80;;;;;;5091274;28;20921;-71
2022/03/30 09:21:51;;;;;;;56.47;22.60;;;14.60;53.30;;;;;;5091861;28;20440;-72
2022/03/30 09:24:22;;;;;;;60.27;19.33;;;14.40;52.70;;;;;;5090908;28;20504;-74
2022/03/30 09:26:50;;;;;;;57.20;20.17;;;14.10;54.00;;;;;;5072460;28;20503;-72
2022/03/30 09:29:21;;;;;;;85.80;21.17;;;14.00;54.10;;;;;;5084003;28;21053;-71
2022/03/30 09:31:52;;;;;;;54.67;20.30;;;14.20;53.50;;;;;;5090592;28;20455;-72
2022/03/30 09:34:19;;;;;;;54.27;20.10;;;14.50;50.80;;;;;;5090976;28;22085;-74
2022/03/30 09:36:45;;;;;;;56.80;19.40;;;14.40;50.90;;;;;;5090995;28;20428;-71
2022/03/30 09:39:34;;;;;;;65.17;20.83;;;14.20;50.60;;;;;;5086344;28;20433;-74
2022/03/30 09:42:00;;;;;;;55.60;20.20;;;14.60;48.90;;;;;;5084454;28;20448;-77
2022/03/30 09:44:29;;;;;;;58.57;19.80;;;14.30;49.90;;;;;;5089478;28;20421;-74
2022/03/30 09:47:05;;;;;;;61.77;22.07;;;14.40;50.50;;;;;;5091177;28;20424;-77
2022/03/30 09:49:39;;;;;;;54.37;20.60;;;14.50;50.50;;;;;;5085987;28;20436;-75
2022/03/30 09:52:23;;;;;;;67.10;21.60;;;14.50;51.80;;;;;;5092653;28;20437;-75
2022/03/30 09:54:57;;;;;;;66.63;20.37;;;14.70;50.70;;;;;;5090776;28;20725;-72
2022/03/30 09:57:25;;;;;;;65.63;21.50;;;14.70;50.40;;;;;;5091385;28;20504;-74
2022/03/30 10:00:00;;;;;;;50.83;20.50;;;14.90;50.60;;;;;;5089396;28;20417;-72
2022/03/30 10:02:27;;;;;;;71.00;23.43;;;15.10;49.50;;;;;;5091476;28;20443;-74
2022/03/30 10:04:54;;;;;;;64.77;20.50;;;15.30;48.60;;;;;;5090831;28;20425;-73
2022/03/30 10:07:21;;;;;;;51.40;21.07;;;15.50;47.40;;;;;;5073588;28;20946;-77
2022/03/30 10:09:48;;;;;;;72.07;22.40;;;15.30;49.50;;;;;;5091509;28;20902;-74
2022/03/30 10:12:17;;;;;;;66.67;23.83;;;15.20;50.90;;;;;;5090401;28;20436;-75
2022/03/30 10:14:44;;;;;;;58.50;21.80;;;15.20;50.70;;;;;;5091023;28;20427;-77
2022/03/30 10:17:09;;;;;;;68.77;24.30;;;15.20;50.10;;;;;;5091833;28;20428;-74
2022/03/30 10:19:35;;;;;;;62.60;23.67;;;15.00;51.40;;;;;;5083129;28;20433;-75
2022/03/30 10:22:26;;;;;;;59.33;22.83;;;15.30;51.20;;;;;;5068192;28;20559;-74
2022/03/30 10:25:02;;;;;;;68.83;23.97;;;16.20;50.30;;;;;;5072137;28;20194;-73
2022/03/30 10:27:54;;;;;;;67.33;22.40;;;15.70;49.60;;;;;;5090663;28;20471;-74
2022/03/30 10:30:29;;;;;;;72.33;22.60;;;15.70;49.50;;;;;;5089719;28;20427;-75
2022/03/30 10:32:58;;;;;;;61.03;23.73;;;15.30;49.30;;;;;;5090659;28;20428;-75
2022/03/30 10:35:38;;;;;;;55.13;20.17;;;15.40;50.80;;;;;;5073831;28;20414;-76
2022/03/30 10:38:04;;;;;;;46.53;20.00;;;15.80;49.00;;;;;;5076441;28;20742;-74
2022/03/30 10:40:29;;;;;;;42.97;17.60;;;16.20;48.00;;;;;;5059020;28;20424;-74
2022/03/30 10:42:57;;;;;;;53.47;16.73;;;16.20;44.80;;;;;;5090628;28;20428;-77
2022/03/30 10:45:29;;;;;;;65.83;17.70;;;16.00;43.50;;;;;;5092020;28;20620;-74
2022/03/30 10:48:21;;;;;;;50.13;16.40;;;15.60;46.30;;;;;;5084352;28;20548;-73
2022/03/30 10:51:15;;;;;;;40.10;15.40;;;15.50;46.70;;;;;;5070316;28;20509;-74
2022/03/30 10:53:51;;;;;;;41.90;13.47;;;15.90;45.10;;;;;;5086513;28;20961;-79
2022/03/30 10:56:22;;;;;;;39.23;10.67;;;15.20;43.50;;;;;;5080922;28;20432;-73
2022/03/30 10:59:05;;;;;;;36.03;12.10;;;14.60;45.60;;;;;;5084581;28;20438;-73
2022/03/30 11:01:39;;;;;;;28.70;12.67;;;14.10;48.00;;;;;;5090646;28;20450;-74
2022/03/30 11:04:10;;;;;;;32.60;11.47;;;14.30;47.30;;;;;;5072784;28;20427;-74
2022/03/30 11:06:45;;;;;;;28.90;11.97;;;14.20;48.80;;;;;;5072913;28;20840;-75
2022/03/30 11:09:20;;;;;;;32.00;12.27;;;14.70;46.70;;;;;;5089335;28;20454;-73
2022/03/30 11:11:58;;;;;;;37.70;11.70;;;14.20;48.50;;;;;;5090119;28;20606;-77
2022/03/30 11:14:45;;;;;;;33.67;12.20;;;14.00;50.40;;;;;;5072810;28;20547;-74
2022/03/30 11:17:15;;;;;;;24.30;11.53;;;14.30;49.50;;;;;;5090917;28;20416;-77
2022/03/30 11:19:46;;;;;;;33.47;11.23;;;14.40;47.00;;;;;;5082811;28;20485;-74
2022/03/30 11:22:28;;;;;;;34.47;12.00;;;13.90;48.50;;;;;;5109766;28;20529;-74
2022/03/30 11:25:22;;;;;;;27.40;11.87;;;14.20;47.20;;;;;;5094479;28;20491;-74
2022/03/30 11:27:57;;;;;;;28.43;11.50;;;15.20;43.40;;;;;;5094244;28;20792;-75
2022/03/30 11:30:24;;;;;;;27.90;11.80;;;15.20;44.20;;;;;;5094238;28;20431;-75
2022/03/30 11:32:49;;;;;;;30.33;10.90;;;15.30;41.50;;;;;;5093390;28;20836;-76
2022/03/30 11:35:17;;;;;;;26.00;10.40;;;14.80;44.60;;;;;;5076436;28;20463;-74
2022/03/30 11:37:45;;;;;;;33.33;10.90;;;15.60;43.80;;;;;;5095254;28;20174;-76
2022/03/30 11:40:18;;;;;;;32.93;10.50;;;17.40;38.60;;;;;;5076112;28;20440;-77
2022/03/30 11:42:46;;;;;;;25.53;10.20;;;17.20;34.90;;;;;;5092875;28;20471;-76
2022/03/30 11:45:19;;;;;;;28.10;10.70;;;16.80;36.00;;;;;;5073090;28;20995;-74
2022/03/30 11:47:52;;;;;;;29.17;10.40;;;16.20;36.50;;;;;;5073986;28;20476;-74
2022/03/30 11:50:31;;;;;;;34.93;10.30;;;15.50;37.50;;;;;;5073803;28;20450;-74
2022/03/30 11:53:00;;;;;;;28.20;10.60;;;15.40;37.40;;;;;;5074345;28;20479;-78
2022/03/30 11:55:32;;;;;;;29.30;9.73;;;15.30;39.80;;;;;;5073847;28;20414;-74
2022/03/30 11:57:58;;;;;;;24.73;10.57;;;16.20;35.20;;;;;;5073939;28;20413;-75
2022/03/30 12:00:27;;;;;;;27.60;10.30;;;16.80;33.70;;;;;;5073653;28;20970;-74
2022/03/30 12:02:56;;;;;;;23.53;9.37;;;17.10;32.80;;;;;;5074935;28;20526;-75
2022/03/30 12:05:22;;;;;;;25.13;9.30;;;16.40;36.40;;;;;;5073364;28;20810;-75
2022/03/30 12:07:53;;;;;;;25.83;9.97;;;16.40;34.20;;;;;;5075185;28;20574;-74
2022/03/30 12:10:19;;;;;;;24.90;10.10;;;17.00;31.70;;;;;;5093466;28;20454;-74
2022/03/30 12:12:45;;;;;;;29.10;9.40;;;17.10;30.70;;;;;;5093529;28;20430;-73
2022/03/30 12:15:19;;;;;;;32.37;9.03;;;16.10;33.20;;;;;;5089331;28;20446;-74
2022/03/30 12:17:54;;;;;;;31.33;9.80;;;16.10;35.10;;;;;;5092918;28;20881;-73
2022/03/30 12:20:24;;;;;;;36.60;9.60;;;17.40;31.90;;;;;;5093565;28;20518;-70
2022/03/30 12:23:04;;;;;;;42.00;9.50;;;18.10;29.70;;;;;;5093261;28;20466;-71
2022/03/30 12:25:35;;;;;;;27.60;9.03;;;18.40;28.70;;;;;;5074383;28;20445;-76
2022/03/30 12:28:02;;;;;;;22.30;8.70;;;19.30;28.20;;;;;;5091028;28;20460;-70
2022/03/30 12:30:31;;;;;;;23.40;8.53;;;19.80;26.40;;;;;;5091390;28;20512;-72
2022/03/30 12:32:57;;;;;;;17.73;8.27;;;18.90;27.20;;;;;;5092299;28;20462;-71
2022/03/30 12:35:24;;;;;;;33.90;8.90;;;18.40;27.90;;;;;;5074011;28;20565;-76
2022/03/30 12:38:05;;;;;;;37.53;9.90;;;18.10;28.10;;;;;;5092086;28;20464;-74
2022/03/30 12:40:37;;;;;;;24.33;8.30;;;17.50;29.60;;;;;;5092389;28;20521;-74